Time;durP1;ratioP1;P1;durP2;ratioP2;P2;SDS_P1;SDS_P2;PMS_P1;PMS_P2;Temp;Humidity;BMP_temperature;BMP_pressure;BME280_temperature;BME280_humidity;BME280_pressure;Samples;Min_cycle;Max_cycle;Signal;HPM_P1;HPM_P2
2023/01/07 07:36:49;;;;;;;0.40;0.40;;;11.20;99.90;11.40;100815.00;;;;5057339;28;20681;-69
2023/01/07 07:39:15;;;;;;;0.60;0.60;;;11.20;99.90;11.80;100769.00;;;;5051451;28;20195;-69
2023/01/07 07:41:41;;;;;;;0.40;0.40;;;11.20;99.90;11.70;100769.00;;;;5069516;28;20200;-69
2023/01/07 07:44:07;;;;;;;0.73;0.73;;;11.30;99.90;11.60;100766.00;;;;5038844;28;20192;-69
2023/01/07 07:46:32;;;;;;;0.60;0.53;;;11.20;99.90;11.60;100801.00;;;;5054894;28;20282;-69
2023/01/07 07:48:58;;;;;;;0.20;0.20;;;11.20;99.90;11.80;100800.00;;;;5061412;28;20264;-70
2023/01/07 07:51:24;;;;;;;0.30;0.30;;;11.30;99.90;11.60;100799.00;;;;5065782;28;20191;-70
2023/01/07 07:53:50;;;;;;;0.57;0.53;;;11.30;99.90;11.80;100797.00;;;;5052465;28;20214;-70
2023/01/07 07:56:16;;;;;;;0.40;0.40;;;11.30;99.90;11.70;100800.00;;;;5049339;28;20196;-70
2023/01/07 07:58:42;;;;;;;0.40;0.40;;;11.30;99.90;11.90;100782.00;;;;5052791;28;20190;-70
2023/01/07 08:01:10;;;;;;;0.40;0.40;;;11.30;99.90;12.10;100747.00;;;;5070256;28;20274;-71
2023/01/07 08:03:36;;;;;;;3.13;0.83;;;11.40;99.90;11.90;100792.00;;;;5053396;28;20191;-70
2023/01/07 08:06:04;;;;;;;1.13;0.50;;;11.40;99.90;11.90;100783.00;;;;5056431;28;20193;-70
2023/01/07 08:08:29;;;;;;;0.27;0.27;;;11.40;99.90;12.10;100795.00;;;;5043276;28;20194;-70
2023/01/07 08:10:55;;;;;;;0.50;0.50;;;11.40;99.90;12.10;100793.00;;;;5042717;28;20187;-70
2023/01/07 08:13:22;;;;;;;0.30;0.30;;;11.40;99.90;12.10;100790.00;;;;5047935;28;20206;-70
2023/01/07 08:15:48;;;;;;;0.73;0.67;;;11.40;99.90;11.80;100798.00;;;;5036499;28;20205;-70
2023/01/07 08:18:14;;;;;;;0.20;0.20;;;11.30;99.90;12.20;100801.00;;;;5065149;28;20187;-70
2023/01/07 08:20:39;;;;;;;1.13;1.13;;;11.40;99.90;12.30;100785.00;;;;5055244;28;20184;-69
2023/01/07 08:23:07;;;;;;;0.30;0.30;;;11.40;99.90;12.20;100795.00;;;;5049574;28;20198;-70
2023/01/07 08:25:35;;;;;;;0.30;0.30;;;11.40;99.90;12.30;100788.00;;;;5049532;28;20736;-70
2023/01/07 08:28:02;;;;;;;0.40;0.40;;;11.40;99.90;12.40;100788.00;;;;5056907;28;20191;-70
2023/01/07 08:30:29;;;;;;;1.17;1.07;;;11.50;99.90;12.30;100795.00;;;;5072621;28;20650;-70
2023/01/07 08:32:56;;;;;;;0.40;0.40;;;11.50;99.90;12.60;100747.00;;;;5051892;28;20212;-69
2023/01/07 08:35:22;;;;;;;0.37;0.37;;;11.50;99.90;12.30;100797.00;;;;5054591;28;20709;-69
2023/01/07 08:37:49;;;;;;;0.67;0.57;;;11.60;99.90;11.70;100788.00;;;;5059824;28;20203;-69
2023/01/07 08:40:15;;;;;;;0.40;0.40;;;11.40;99.90;11.40;100782.00;;;;5040610;28;20199;-70
2023/01/07 08:42:40;;;;;;;0.37;0.37;;;11.30;99.90;11.80;100724.00;;;;5038038;28;20194;-69
2023/01/07 08:45:09;;;;;;;2.63;0.43;;;11.30;99.90;12.50;100780.00;;;;5069621;28;20200;-70
2023/01/07 08:47:34;;;;;;;1.43;1.33;;;11.50;99.90;12.40;100779.00;;;;5032856;28;20229;-70
2023/01/07 08:50:02;;;;;;;0.20;0.20;;;11.60;99.90;12.20;100782.00;;;;5056536;28;20219;-69
2023/01/07 08:52:28;;;;;;;0.37;0.37;;;11.50;99.90;12.30;100777.00;;;;5056029;28;20681;-69
2023/01/07 08:54:54;;;;;;;0.50;0.47;;;11.60;99.90;12.40;100771.00;;;;5039101;28;20274;-70
2023/01/07 08:57:20;;;;;;;0.43;0.40;;;11.50;99.90;12.40;100769.00;;;;5049583;28;20288;-70
2023/01/07 08:59:46;;;;;;;0.30;0.30;;;11.60;99.90;12.10;100755.00;;;;5035398;28;20266;-71
2023/01/07 09:02:17;;;;;;;0.20;0.20;;;11.50;99.90;12.50;100767.00;;;;5040524;28;20200;-71
2023/01/07 09:04:45;;;;;;;0.67;0.40;;;11.60;99.90;12.60;100771.00;;;;5055621;28;20190;-71
2023/01/07 09:07:11;;;;;;;0.50;0.40;;;11.60;99.90;12.20;100767.00;;;;5071515;28;20203;-70
2023/01/07 09:09:45;;;;;;;0.73;0.73;;;11.50;99.90;12.20;100757.00;;;;5049655;28;20265;-70
2023/01/07 09:12:11;;;;;;;0.70;0.63;;;11.40;99.90;12.20;100746.00;;;;5041315;28;20284;-70
2023/01/07 09:14:38;;;;;;;0.57;0.57;;;11.50;99.90;12.10;100751.00;;;;5056644;28;20277;-71
2023/01/07 09:17:04;;;;;;;0.30;0.30;;;11.40;99.90;12.40;100735.00;;;;5059400;28;20206;-71
2023/01/07 09:19:29;;;;;;;0.20;0.20;;;11.50;99.90;12.20;100736.00;;;;5053230;28;20657;-69
2023/01/07 09:21:58;;;;;;;0.63;0.53;;;11.50;99.90;12.00;100724.00;;;;5055913;28;20274;-71
2023/01/07 09:24:24;;;;;;;0.87;0.87;;;11.40;99.90;12.20;100701.00;;;;5036509;28;20185;-71
2023/01/07 09:26:51;;;;;;;0.30;0.30;;;11.40;99.90;12.00;100710.00;;;;5050402;28;20193;-71
2023/01/07 09:29:17;;;;;;;0.20;0.20;;;11.40;99.90;12.10;100721.00;;;;5055865;28;20198;-71
2023/01/07 09:31:50;;;;;;;0.20;0.20;;;11.40;99.90;12.00;100724.00;;;;5047098;28;20189;-70
2023/01/07 09:34:17;;;;;;;0.20;0.20;;;11.40;99.90;12.30;100710.00;;;;5056569;28;20184;-70
2023/01/07 09:36:43;;;;;;;0.50;0.50;;;11.40;99.90;12.60;100657.00;;;;5070272;28;20220;-70
2023/01/07 09:39:11;;;;;;;0.20;0.20;;;11.60;99.90;12.40;100699.00;;;;5055659;28;20545;-71
2023/01/07 09:42:10;;;;;;;0.30;0.30;;;11.70;99.90;12.10;100690.00;;;;5049269;28;20348;-71
2023/01/07 09:45:03;;;;;;;0.40;0.40;;;11.60;99.90;12.40;100707.00;;;;5062161;28;20650;-71
2023/01/07 09:47:35;;;;;;;0.40;0.40;;;11.60;99.90;12.50;100697.00;;;;5068098;28;20189;-71
2023/01/07 09:50:19;;;;;;;0.43;0.40;;;11.70;99.90;11.80;100644.00;;;;5056495;28;20236;-72
2023/01/07 09:52:55;;;;;;;0.47;0.33;;;11.60;99.90;12.20;100671.00;;;;5072061;28;20633;-71
2023/01/07 09:55:36;;;;;;;0.40;0.40;;;11.60;99.90;12.40;100672.00;;;;5053739;28;20545;-70
2023/01/07 09:58:03;;;;;;;1.23;0.40;;;11.70;99.90;12.30;100676.00;;;;5043767;28;20258;-70
2023/01/07 10:01:37;;;;;;;0.30;0.30;;;11.70;99.90;12.40;100679.00;;;;5054359;28;20418;-72
2023/01/07 10:04:25;;;;;;;0.27;0.27;;;11.80;99.90;12.80;100677.00;;;;5060887;28;20263;-71
2023/01/07 10:07:24;;;;;;;0.30;0.30;;;11.90;99.90;12.50;100673.00;;;;5062474;28;20193;-71
2023/01/07 10:13:47;;;;;;;0.30;0.30;;;12.10;99.90;13.00;100665.00;;;;5055256;28;20262;-71
2023/01/07 10:16:44;;;;;;;0.83;0.83;;;12.20;99.90;12.70;100662.00;;;;5056007;28;20230;-70
2023/01/07 10:20:27;;;;;;;0.80;0.80;;;12.20;99.90;12.80;100669.00;;;;5039601;28;20197;-72
2023/01/07 10:33:56;;;;;;;0.27;0.27;;;12.10;99.90;12.90;100600.00;;;;5131528;27;20539;-69
2023/01/07 10:37:28;;;;;;;0.50;0.50;;;12.30;99.90;12.80;100609.00;;;;5109880;28;20273;-70
2023/01/07 10:40:36;;;;;;;0.30;0.30;;;12.30;99.90;13.30;100621.00;;;;5060827;28;20218;-70
2023/01/07 10:43:59;;;;;;;0.17;0.17;;;12.40;99.90;13.50;100622.00;;;;5064522;28;20279;-68
2023/01/07 10:47:04;;;;;;;1.37;1.07;;;12.40;99.90;12.70;100608.00;;;;5068281;28;20288;-69
2023/01/07 10:50:40;;;;;;;0.67;0.40;;;12.30;99.90;12.70;100591.00;;;;5122815;28;20502;-69
2023/01/07 10:54:11;;;;;;;0.50;0.50;;;12.10;99.90;12.50;100587.00;;;;5041006;28;20279;-69
2023/01/07 10:57:01;;;;;;;0.50;0.50;;;11.90;99.90;12.40;100589.00;;;;5028039;28;20200;-69
2023/01/07 10:59:29;;;;;;;0.77;0.73;;;11.70;99.90;12.10;100523.00;;;;5108875;28;20241;-69
2023/01/07 11:02:02;;;;;;;0.60;0.50;;;11.60;99.90;12.40;100560.00;;;;5100857;28;20203;-69
2023/01/07 11:05:03;;;;;;;0.97;0.63;;;11.60;99.90;12.30;100569.00;;;;5111199;28;20584;-69
2023/01/07 11:07:39;;;;;;;0.30;0.30;;;11.60;99.90;12.50;100563.00;;;;5109716;28;20193;-68
2023/01/07 11:10:13;;;;;;;0.30;0.30;;;11.70;99.90;12.20;100551.00;;;;5115674;28;20226;-68
2023/01/07 11:13:17;;;;;;;0.50;0.50;;;11.70;99.90;12.40;100507.00;;;;5110259;28;20196;-69
2023/01/07 11:15:53;;;;;;;0.50;0.50;;;11.70;99.90;12.10;100508.00;;;;5108791;28;20210;-70
2023/01/07 11:18:25;;;;;;;0.47;0.47;;;11.70;99.90;12.70;100551.00;;;;5109394;28;20207;-70
2023/01/07 11:20:59;;;;;;;0.87;0.40;;;11.80;99.90;12.50;100547.00;;;;5098946;28;20206;-70
2023/01/07 11:23:36;;;;;;;0.57;0.53;;;11.90;99.90;12.40;100540.00;;;;5110806;28;20190;-69
2023/01/07 11:26:50;;;;;;;0.30;0.30;;;11.90;99.90;13.10;100490.00;;;;5110188;28;20177;-69
2023/01/07 11:29:41;;;;;;;0.70;0.67;;;12.10;99.90;13.10;100536.00;;;;5101858;28;20271;-69
2023/01/07 11:32:26;;;;;;;0.90;0.67;;;12.30;99.90;12.80;100514.00;;;;5108813;28;20247;-69
2023/01/07 11:35:27;;;;;;;0.70;0.60;;;12.30;99.90;13.10;100483.00;;;;5109075;28;20180;-68
2023/01/07 11:37:53;;;;;;;2.13;0.80;;;12.30;99.90;12.90;100494.00;;;;5110874;28;20650;-68
2023/01/07 11:40:27;;;;;;;0.90;0.57;;;12.20;99.90;12.90;100505.00;;;;5110886;28;20210;-68
2023/01/07 11:43:22;;;;;;;2.20;0.87;;;12.30;99.90;13.00;100504.00;;;;5104657;28;20642;-68
2023/01/07 11:46:03;;;;;;;3.30;0.70;;;12.40;99.90;13.00;100508.00;;;;5094024;28;20655;-67
2023/01/07 11:48:41;;;;;;;1.03;0.70;;;12.40;99.90;13.20;100490.00;;;;5069470;28;20185;-68
2023/01/07 11:51:12;;;;;;;1.40;1.07;;;12.40;99.90;13.00;100487.00;;;;5087610;28;20182;-68
2023/01/07 11:53:44;;;;;;;1.20;1.10;;;12.40;99.90;12.70;100486.00;;;;5076511;28;20183;-68
2023/01/07 11:56:31;;;;;;;0.83;0.80;;;12.30;99.90;13.50;100477.00;;;;5092990;28;20539;-68
2023/01/07 11:59:13;;;;;;;0.67;0.67;;;12.50;99.90;13.30;100492.00;;;;5089900;28;20237;-68
2023/01/07 12:01:54;;;;;;;2.07;1.40;;;12.60;99.90;13.20;100479.00;;;;5094379;28;20573;-68
2023/01/07 12:04:30;;;;;;;1.57;0.90;;;12.50;99.90;13.30;100469.00;;;;5093908;28;20220;-68
2023/01/07 12:07:22;;;;;;;0.50;0.50;;;12.60;99.90;13.50;100488.00;;;;5094286;28;20206;-68
2023/01/07 12:09:48;;;;;;;0.30;0.30;;;12.60;99.90;13.50;100487.00;;;;5094114;28;20185;-68
2023/01/07 12:12:35;;;;;;;0.47;0.47;;;12.70;99.90;13.50;100473.00;;;;5093614;28;20246;-68
2023/01/07 12:15:22;;;;;;;2.10;1.30;;;12.60;99.90;13.80;100467.00;;;;5091051;28;20257;-68
2023/01/07 12:18:14;;;;;;;0.30;0.30;;;12.70;99.90;13.60;100419.00;;;;5077871;28;20540;-68
2023/01/07 12:21:02;;;;;;;0.53;0.53;;;12.70;99.90;13.60;100454.00;;;;5092199;28;20212;-68
2023/01/07 12:23:56;;;;;;;1.77;1.38;;;12.80;99.90;13.30;100445.00;;;;5094623;28;20945;-68
2023/01/07 12:26:57;;;;;;;0.93;0.60;;;12.60;99.90;13.10;100439.00;;;;5094200;28;20188;-68
2023/01/07 12:30:01;;;;;;;1.80;1.37;;;12.60;99.90;13.30;100425.00;;;;5093914;28;20182;-68
2023/01/07 12:33:03;;;;;;;0.53;0.40;;;12.50;99.90;13.00;100373.00;;;;5093697;28;20219;-68
2023/01/07 12:35:41;;;;;;;0.97;0.60;;;12.60;99.90;13.70;100380.00;;;;5095212;28;20189;-68
2023/01/07 12:38:43;;;;;;;0.87;0.87;;;12.60;99.90;13.50;100419.00;;;;5088851;28;20513;-68
2023/01/07 12:41:25;;;;;;;0.20;0.20;;;12.70;99.90;13.40;100415.00;;;;5086092;28;20651;-68
2023/01/07 12:43:58;;;;;;;0.40;0.40;;;12.70;99.90;13.60;100413.00;;;;5092017;28;20216;-68
2023/01/07 12:46:30;;;;;;;2.00;0.37;;;12.70;99.90;13.70;100393.00;;;;5093465;28;20191;-68
2023/01/07 12:49:06;;;;;;;0.30;0.30;;;12.80;99.90;13.50;100401.00;;;;5093562;28;20193;-68
2023/01/07 12:51:48;;;;;;;0.77;0.30;;;12.70;99.90;13.90;100358.00;;;;5093458;28;20686;-68
2023/01/07 12:54:17;;;;;;;2.00;1.20;;;12.80;99.90;13.60;100387.00;;;;5093185;28;20188;-68
2023/01/07 12:57:29;;;;;;;0.77;0.40;;;12.70;99.90;13.30;100379.00;;;;5080479;28;20257;-68
2023/01/07 13:00:18;;;;;;;0.30;0.30;;;12.60;99.90;13.40;100379.00;;;;5080804;28;20259;-67
2023/01/07 13:02:54;;;;;;;0.40;0.40;;;12.60;99.90;13.50;100380.00;;;;5083989;28;20189;-68
2023/01/07 13:05:26;;;;;;;0.20;0.20;;;12.60;99.90;13.50;100365.00;;;;5079049;28;20194;-68
2023/01/07 13:08:10;;;;;;;0.60;0.40;;;12.60;99.90;13.40;100371.00;;;;5091235;28;20187;-68
2023/01/07 13:10:40;;;;;;;1.47;0.80;;;12.50;99.90;13.60;100367.00;;;;5077682;28;20249;-68
2023/01/07 13:13:21;;;;;;;0.40;0.40;;;12.70;99.90;13.40;100372.00;;;;5091948;28;20292;-68
2023/01/07 13:15:49;;;;;;;0.43;0.40;;;12.70;99.90;13.60;100360.00;;;;5093232;28;20255;-68
2023/01/07 13:18:20;;;;;;;0.70;0.47;;;12.70;99.90;13.20;100368.00;;;;5092317;28;20189;-68
2023/01/07 13:21:18;;;;;;;0.20;0.20;;;12.50;99.90;13.10;100352.00;;;;5092657;28;20213;-68
2023/01/07 13:24:15;;;;;;;0.40;0.40;;;12.50;99.90;13.20;100347.00;;;;5091857;28;20193;-68
2023/01/07 13:27:21;;;;;;;1.43;1.33;;;12.40;99.90;13.40;100345.00;;;;5093018;28;20227;-68
2023/01/07 13:30:38;;;;;;;0.20;0.20;;;12.50;99.90;13.60;100305.00;;;;5095096;28;20194;-68
2023/01/07 13:33:11;;;;;;;0.43;0.43;;;12.60;99.90;13.30;100342.00;;;;5055952;28;20235;-68
2023/01/07 13:36:06;;;;;;;1.07;0.60;;;12.50;99.90;13.10;100349.00;;;;5092898;28;20187;-68
2023/01/07 13:39:04;;;;;;;0.37;0.37;;;12.40;99.90;13.60;100339.00;;;;5089271;28;20526;-68
2023/01/07 13:41:48;;;;;;;0.17;0.17;;;12.40;99.90;13.30;100346.00;;;;5085703;28;20203;-68
2023/01/07 13:44:42;;;;;;;0.50;0.40;;;12.50;99.90;13.20;100349.00;;;;5074803;28;20198;-68
2023/01/07 13:47:12;;;;;;;0.27;0.27;;;12.50;99.90;13.40;100340.00;;;;5080916;28;20184;-68
2023/01/07 13:49:38;;;;;;;0.30;0.30;;;12.40;99.90;13.30;100330.00;;;;5092426;28;20236;-68
2023/01/07 13:52:22;;;;;;;0.50;0.50;;;12.40;99.90;13.30;100335.00;;;;5091984;28;20197;-69
2023/01/07 13:54:52;;;;;;;0.60;0.60;;;12.50;99.90;13.40;100342.00;;;;5109009;28;20186;-68
2023/01/07 13:57:30;;;;;;;0.40;0.37;;;12.50;99.90;13.50;100301.00;;;;5077162;28;20209;-68
2023/01/07 14:00:18;;;;;;;0.30;0.30;;;12.50;99.90;13.50;100289.00;;;;5083544;28;20234;-68
2023/01/07 14:02:56;;;;;;;0.83;0.47;;;12.50;99.90;13.00;100341.00;;;;5092011;28;20306;-68
2023/01/07 14:05:29;;;;;;;0.37;0.37;;;12.40;99.90;13.00;100318.00;;;;5091856;28;20269;-69
2023/01/07 14:07:58;;;;;;;4.63;0.67;;;12.30;99.90;13.30;100338.00;;;;5079210;28;20175;-68
2023/01/07 14:10:29;;;;;;;0.40;0.40;;;12.30;99.90;14.00;100332.00;;;;5093058;28;20696;-69
2023/01/07 14:13:34;;;;;;;0.50;0.50;;;12.50;99.90;13.40;100282.00;;;;5092900;28;20214;-68
2023/01/07 14:16:14;;;;;;;0.53;0.50;;;12.40;99.90;13.00;100320.00;;;;5100089;28;20212;-68
2023/01/07 14:19:16;;;;;;;0.20;0.20;;;12.20;99.90;12.70;100294.00;;;;5083150;28;20699;-68
2023/01/07 14:22:05;;;;;;;0.20;0.20;;;12.10;99.90;12.80;100308.00;;;;5088230;28;20194;-68
2023/01/07 14:25:10;;;;;;;0.60;0.60;;;11.90;99.90;12.70;100286.00;;;;5091913;28;20182;-68
2023/01/07 14:28:13;;;;;;;0.77;0.77;;;11.90;99.90;12.40;100274.00;;;;5090845;28;20652;-68
2023/01/07 14:31:18;;;;;;;0.20;0.20;;;11.80;99.90;12.90;100266.00;;;;5091481;28;20243;-68
2023/01/07 14:33:57;;;;;;;0.57;0.57;;;11.80;99.90;12.60;100256.00;;;;5077609;28;20185;-68
2023/01/07 14:36:24;;;;;;;2.03;1.87;;;11.90;99.90;13.10;100274.00;;;;5088915;28;20272;-68
2023/01/07 14:39:52;;;;;;;1.07;0.97;;;12.00;99.90;12.70;100261.00;;;;5076702;28;20637;-67
2023/01/07 14:42:17;;;;;;;1.33;1.23;;;11.80;99.90;12.50;100260.00;;;;5043481;28;20192;-68
2023/01/07 14:44:49;;;;;;;0.43;0.43;;;11.80;99.90;12.60;100256.00;;;;5076430;28;20198;-69
2023/01/07 14:47:49;;;;;;;1.10;1.10;;;11.80;99.90;12.60;100248.00;;;;5091675;28;20185;-68
2023/01/07 14:50:36;;;;;;;0.90;0.50;;;11.80;99.90;12.30;100224.00;;;;5083476;28;20191;-68
2023/01/07 14:53:41;;;;;;;1.13;1.03;;;11.70;99.90;12.10;100235.00;;;;5080264;28;20657;-68
2023/01/07 14:56:10;;;;;;;0.33;0.33;;;11.70;99.90;12.50;100212.00;;;;5096369;28;20650;-69
2023/01/07 14:59:13;;;;;;;1.73;1.37;;;11.60;99.90;12.10;100189.00;;;;5091423;28;20638;-68
2023/01/07 15:01:51;;;;;;;0.50;0.50;;;11.60;99.90;12.70;100229.00;;;;5092874;28;20208;-69
2023/01/07 15:04:41;;;;;;;2.50;1.70;;;11.70;99.90;12.40;100214.00;;;;5091441;28;20201;-69
2023/01/07 15:07:25;;;;;;;1.20;1.07;;;11.60;99.90;12.00;100210.00;;;;5092618;28;20209;-68
2023/01/07 15:16:01;;;;;;;0.70;0.70;;;11.70;99.90;12.00;100205.00;;;;5092493;28;20204;-69
2023/01/07 15:18:30;;;;;;;0.40;0.40;;;11.50;99.90;12.30;100195.00;;;;5088529;28;20189;-69
2023/01/07 15:21:18;;;;;;;0.87;0.87;;;11.60;99.90;12.10;100207.00;;;;5095553;28;20184;-69
2023/01/07 15:24:05;;;;;;;0.70;0.70;;;11.50;99.90;12.10;100203.00;;;;5095124;28;20185;-69
2023/01/07 15:26:49;;;;;;;0.73;0.73;;;11.40;99.90;12.00;100186.00;;;;5083632;28;20182;-68
2023/01/07 15:29:40;;;;;;;0.60;0.60;;;11.30;99.90;12.00;100187.00;;;;5095226;28;20739;-68
2023/01/07 15:32:38;;;;;;;0.40;0.40;;;11.20;99.90;12.30;100188.00;;;;5095957;28;20287;-68
2023/01/07 15:35:39;;;;;;;4.80;1.83;;;11.30;99.90;11.80;100176.00;;;;5094931;28;20214;-68
2023/01/07 15:38:48;;;;;;;1.00;0.73;;;11.20;99.90;11.70;100180.00;;;;5077359;28;20193;-68
2023/01/07 15:41:35;;;;;;;0.40;0.40;;;11.10;99.90;12.00;100186.00;;;;5084074;28;20181;-69
2023/01/07 15:44:36;;;;;;;1.10;1.00;;;11.10;99.90;11.80;100128.00;;;;5094577;28;20203;-68
2023/01/07 15:47:02;;;;;;;0.83;0.77;;;11.10;99.90;11.60;100176.00;;;;5091209;28;20200;-69
2023/01/07 15:49:29;;;;;;;1.17;1.17;;;11.10;99.90;12.00;100183.00;;;;5094847;28;20192;-68
2023/01/07 15:51:58;;;;;;;2.80;1.17;;;11.20;99.90;11.60;100183.00;;;;5095628;28;20204;-68
2023/01/07 15:54:35;;;;;;;0.90;0.83;;;11.10;99.90;11.90;100191.00;;;;5094511;28;20632;-68
2023/01/07 15:57:16;;;;;;;1.00;1.00;;;11.10;99.90;11.70;100188.00;;;;5089617;28;20184;-68
2023/01/07 15:59:50;;;;;;;0.87;0.50;;;11.10;99.90;11.40;100181.00;;;;5091200;28;20195;-68
2023/01/07 16:02:37;;;;;;;1.80;1.30;;;10.90;99.90;11.50;100164.00;;;;5075098;28;20186;-68
2023/01/07 16:05:29;;;;;;;1.27;0.57;;;10.80;99.90;11.40;100170.00;;;;5089599;28;20176;-68
2023/01/07 16:08:00;;;;;;;0.40;0.40;;;10.80;99.90;11.00;100174.00;;;;5093226;28;20196;-68
2023/01/07 16:10:54;;;;;;;2.33;1.03;;;10.70;99.90;10.90;100161.00;;;;5094125;28;20177;-68
2023/01/07 16:13:20;;;;;;;0.40;0.40;;;10.70;99.90;10.70;100158.00;;;;5087757;28;20222;-68
2023/01/07 16:15:55;;;;;;;0.40;0.40;;;10.50;99.90;11.00;100182.00;;;;5093999;28;20177;-68
2023/01/07 16:18:26;;;;;;;2.50;1.13;;;10.50;99.90;10.90;100171.00;;;;5093654;28;20180;-68
2023/01/07 16:21:19;;;;;;;0.97;0.87;;;10.50;99.90;10.90;100118.00;;;;5094337;28;20241;-68
2023/01/07 16:23:56;;;;;;;0.70;0.70;;;10.50;99.90;10.70;100158.00;;;;5092173;28;20679;-68
2023/01/07 16:26:52;;;;;;;0.87;0.53;;;10.40;99.90;11.00;100156.00;;;;5093822;28;20223;-68
2023/01/07 16:29:27;;;;;;;0.60;0.60;;;10.50;99.90;10.70;100149.00;;;;5083469;28;20189;-68
2023/01/07 16:31:57;;;;;;;0.83;0.83;;;10.40;99.90;10.70;100162.00;;;;5076631;28;20644;-68
2023/01/07 16:34:23;;;;;;;0.80;0.80;;;10.40;99.90;10.70;100160.00;;;;5093581;28;20642;-68
2023/01/07 16:36:58;;;;;;;0.97;0.77;;;10.30;99.90;10.70;100147.00;;;;5095066;28;20277;-68
2023/01/07 16:39:34;;;;;;;1.97;1.57;;;10.30;99.90;10.70;100147.00;;;;5077661;28;20568;-67
2023/01/07 16:42:19;;;;;;;1.00;1.00;;;10.30;99.90;10.60;100147.00;;;;5095098;28;20703;-68
2023/01/07 16:44:54;;;;;;;0.87;0.87;;;10.30;99.90;10.50;100149.00;;;;5062502;28;20668;-68
2023/01/07 16:48:20;;;;;;;0.93;0.93;;;10.20;99.90;10.50;100144.00;;;;5091574;28;20334;-68
2023/01/07 16:50:48;;;;;;;1.53;1.00;;;10.20;99.90;10.40;100140.00;;;;5081356;28;20192;-68
2023/01/07 16:53:34;;;;;;;1.60;1.10;;;10.00;99.90;10.40;100134.00;;;;5079220;28;20223;-68
2023/01/07 16:56:15;;;;;;;2.37;1.60;;;10.00;99.90;10.70;100133.00;;;;5092360;28;20263;-68
2023/01/07 16:58:48;;;;;;;3.00;1.13;;;10.10;99.90;10.50;100127.00;;;;5093648;28;20181;-68
2023/01/07 17:01:20;;;;;;;1.10;0.90;;;10.10;99.90;10.60;100116.00;;;;5093393;28;20208;-68
2023/01/07 17:03:58;;;;;;;1.00;0.97;;;10.20;99.90;10.90;100112.00;;;;5089034;28;20678;-68
2023/01/07 17:06:52;;;;;;;0.70;0.70;;;10.20;99.90;10.70;100053.00;;;;5093252;28;20313;-68
2023/01/07 17:09:30;;;;;;;7.63;1.83;;;10.30;99.90;10.90;100107.00;;;;5083608;28;20220;-68
2023/01/07 17:11:56;;;;;;;1.90;1.63;;;10.30;99.90;10.70;100107.00;;;;5094215;28;20670;-68
2023/01/07 17:14:37;;;;;;;0.50;0.50;;;10.20;99.90;10.90;100065.00;;;;5092727;28;20277;-68
2023/01/07 17:17:26;;;;;;;0.50;0.50;;;10.30;99.90;11.00;100062.00;;;;5093867;28;20253;-68
2023/01/07 17:20:13;;;;;;;1.20;1.10;;;10.40;99.90;10.90;100067.00;;;;5092579;28;20178;-67
2023/01/07 17:22:39;;;;;;;0.97;0.83;;;10.40;99.90;11.00;100043.00;;;;5093010;28;20238;-67
2023/01/07 17:25:24;;;;;;;1.17;0.70;;;10.40;99.90;10.70;100041.00;;;;5092793;28;20192;-67
2023/01/07 17:27:59;;;;;;;1.13;1.03;;;10.40;99.90;10.80;100054.00;;;;5082636;28;20183;-67
2023/01/07 17:30:33;;;;;;;0.40;0.40;;;10.40;99.90;10.70;100061.00;;;;5073820;28;20197;-67
2023/01/07 17:32:59;;;;;;;0.70;0.70;;;10.40;99.90;10.90;100059.00;;;;5092566;28;20226;-67
2023/01/07 17:35:25;;;;;;;2.40;1.87;;;10.40;99.90;10.80;100037.00;;;;5094044;28;20184;-68
2023/01/07 17:37:53;;;;;;;0.83;0.77;;;10.40;99.90;10.70;100042.00;;;;5091932;28;20180;-68
2023/01/07 17:40:20;;;;;;;0.53;0.53;;;10.40;99.90;10.90;100028.00;;;;5092815;28;20281;-69
2023/01/07 17:45:59;;;;;;;1.10;1.00;;;10.50;99.90;11.10;100031.00;;;;5092262;28;20754;-69
2023/01/07 17:48:25;;;;;;;0.83;0.70;;;10.60;99.90;10.90;100038.00;;;;5105710;28;20671;-69
2023/01/07 17:50:52;;;;;;;1.07;0.80;;;10.60;99.90;11.00;100039.00;;;;5089196;28;20243;-68
2023/01/07 17:53:26;;;;;;;0.40;0.40;;;10.60;99.90;11.20;100031.00;;;;5109196;28;20212;-68
2023/01/07 17:55:52;;;;;;;0.70;0.70;;;10.70;99.90;11.40;100024.00;;;;5096491;28;20185;-69
2023/01/07 17:58:28;;;;;;;0.70;0.70;;;10.80;99.90;11.20;100042.00;;;;5091912;28;20189;-68
2023/01/07 18:00:55;;;;;;;3.53;1.00;;;10.70;99.90;11.00;100034.00;;;;5093074;28;20689;-68
2023/01/07 18:03:22;;;;;;;2.70;1.13;;;10.70;99.90;11.00;100047.00;;;;5092156;28;20181;-68
2023/01/07 18:05:50;;;;;;;0.67;0.67;;;10.70;99.90;11.10;100030.00;;;;5092107;28;20638;-69
2023/01/07 18:08:16;;;;;;;0.87;0.80;;;10.70;99.90;11.20;100014.00;;;;5093860;28;20188;-68
2023/01/07 18:13:38;;;;;;;0.80;0.80;;;10.70;99.90;11.10;100025.00;;;;5056049;28;20682;-68
2023/01/07 18:16:06;;;;;;;2.63;1.80;;;10.70;99.90;10.90;100027.00;;;;5091925;28;20272;-68
2023/01/07 18:18:39;;;;;;;0.97;0.97;;;10.70;99.90;11.30;100025.00;;;;5092029;28;20284;-68
2023/01/07 18:21:10;;;;;;;1.40;1.30;;;10.70;99.90;11.00;100038.00;;;;5075654;28;20246;-70
2023/01/07 18:23:37;;;;;;;0.20;0.20;;;10.60;99.90;11.20;100039.00;;;;5091811;28;20194;-68
2023/01/07 18:26:06;;;;;;;0.27;0.27;;;10.70;99.90;11.00;99998.00;;;;5072819;28;20650;-67
2023/01/07 18:28:32;;;;;;;1.53;0.90;;;10.70;99.90;11.10;100035.00;;;;5090051;28;20188;-67
2023/01/07 18:30:59;;;;;;;0.50;0.50;;;10.70;99.90;10.90;99994.00;;;;5091836;28;20194;-68
2023/01/07 18:33:25;;;;;;;1.60;1.37;;;10.60;99.90;10.70;100034.00;;;;5091839;28;20215;-68
2023/01/07 18:35:52;;;;;;;1.47;0.90;;;10.60;99.90;10.80;100035.00;;;;5091496;28;20192;-68
2023/01/07 18:38:18;;;;;;;1.37;0.93;;;10.50;99.90;11.20;100048.00;;;;5093337;28;20190;-68
2023/01/07 18:40:46;;;;;;;19.43;1.37;;;10.60;99.90;10.70;100058.00;;;;5091971;28;20518;-68
2023/01/07 18:43:17;;;;;;;1.27;0.73;;;10.40;99.90;10.80;100051.00;;;;5091680;28;20223;-68
2023/01/07 18:45:45;;;;;;;0.40;0.40;;;10.40;99.90;11.10;100061.00;;;;5088190;28;20185;-68
2023/01/07 18:48:16;;;;;;;0.90;0.90;;;10.40;99.90;10.40;100055.00;;;;5093603;28;20182;-68
2023/01/07 18:50:45;;;;;;;0.90;0.90;;;10.30;99.90;10.70;100054.00;;;;5091196;28;20706;-68
2023/01/07 18:53:11;;;;;;;0.40;0.40;;;10.30;99.90;10.70;100009.00;;;;5092222;28;20236;-69
2023/01/07 18:55:40;;;;;;;1.73;1.23;;;10.20;99.90;10.80;100051.00;;;;5097331;28;20210;-68
2023/01/07 18:58:07;;;;;;;2.00;0.93;;;10.30;99.90;10.70;100061.00;;;;5094513;28;20606;-68
2023/01/07 19:00:34;;;;;;;0.57;0.57;;;10.30;99.90;10.60;100049.00;;;;5099225;28;20190;-68
2023/01/07 19:03:26;;;;;;;0.53;0.53;;;10.30;99.90;10.80;100065.00;;;;5095882;28;20696;-67
2023/01/07 19:05:54;;;;;;;0.83;0.80;;;10.30;99.90;10.90;100045.00;;;;5094595;28;20197;-67
2023/01/07 19:08:20;;;;;;;1.30;1.20;;;10.30;99.90;10.70;100037.00;;;;5094264;28;20185;-67
2023/01/07 19:10:56;;;;;;;0.67;0.67;;;10.30;99.90;10.90;100043.00;;;;5095718;28;20189;-67
2023/01/07 19:13:45;;;;;;;1.60;1.40;;;10.30;99.90;11.00;100040.00;;;;5090374;28;20204;-67
2023/01/07 19:16:53;;;;;;;0.30;0.30;;;10.40;99.90;10.80;100042.00;;;;5095133;28;20187;-67
2023/01/07 19:20:27;;;;;;;0.70;0.70;;;10.40;99.90;11.10;100043.00;;;;5095643;28;20249;-67
2023/01/07 19:23:11;;;;;;;1.67;1.17;;;10.40;99.90;11.00;100030.00;;;;5092180;28;20191;-68
2023/01/07 19:26:06;;;;;;;2.40;1.77;;;10.50;99.90;11.00;100038.00;;;;5074707;28;20180;-69
2023/01/07 19:28:54;;;;;;;0.70;0.70;;;10.50;99.90;11.10;100028.00;;;;5087315;28;20215;-68
2023/01/07 19:31:27;;;;;;;0.83;0.83;;;10.60;99.90;10.90;100032.00;;;;5092839;28;20195;-68
2023/01/07 19:34:12;;;;;;;1.97;1.37;;;10.50;99.90;10.80;100033.00;;;;5093789;28;20204;-69
2023/01/07 19:36:40;;;;;;;0.83;0.70;;;10.50;99.90;11.20;100024.00;;;;5094575;28;20189;-68
2023/01/07 19:39:15;;;;;;;0.50;0.50;;;10.60;99.90;11.30;100033.00;;;;5096545;28;20165;-69
2023/01/07 19:41:51;;;;;;;1.13;1.03;;;10.70;99.90;11.00;100015.00;;;;5092741;28;20193;-69
2023/01/07 19:44:17;;;;;;;1.60;1.37;;;10.70;99.90;10.90;100016.00;;;;5095021;28;20223;-68